Terminal Aerodrome Forecast
Issued by NWS Des Moines, IA

Home | Current Version | Previous Version | Text Only | Print | Product List | Glossary On
Versions: 1 2 3 4 5 6 7 8 9 10 11 12 13 14 15 16 17 18 19 20 21 22 23 24 25 26 27 28 29
000
FTUS43 KDMX 281730
TAFDSM
TAF
KDSM 281730Z 2818/0118 16008KT P6SM SCT050 BKN150
     FM282200 15008KT 3SM -SN BKN025 OVC060
     FM010100 16007KT P6SM OVC025
     FM011500 25008KT P6SM BKN030=

USA.gov is the U.S. government's official web portal to all federal, state and local government web resources and services.